RJBERJBD

Guest
Details From RJBE - Kobe
To RJBD - NANKI SHIRAHAMA
Flight Number -
Tags generated
Created
Modified
Stats Distance 59 nm / 109 km
Max Altitude 7,700 ft / 2,347 m
Waypoints 3
Social Downloads 0
Likes 0
Share VATSIM

Download

Looking for another format? Having issues loading an existing format? Contact us
Advertisement - Login to hide

Notes

Basic altitude profile: - Ascent Rate: 2500ft/min - Ascent Speed: 250kts - Cruise Altitude: 35000ft - Cruise Speed: 420kts - Descent Rate: 1500ft/min - Descent Speed: 250kts Options: - Use NATs: yes - Use PACOTS: yes - Use low airways: yes - Use high airways: yes

Route

RJBE IWADE RJBD

ID Type Via Altitude Latitude Longitude Leg Dist Tot Dist Heading (true) Name
O RJBE APT - 0 ft / 0 m 34.63270˚ 135.22388˚ - 0 nm - Kobe
IWADE FIX - 7,700 ft / 2,347 m 34.28218˚ 135.32469˚ 21 nm 21 nm 167° / 167° -
O RJBD APT - 0 ft / 0 m 33.66396˚ 135.36002˚ 37 nm 58 nm 177° / 177° NANKI SHIRAHAMA

Altitude Profile

Advertisement - Login to hide

RJBE

Details ICAO RJBE (UKB)
Name Kobe
Region Japan
Timezone Asia/Tokyo (UTC+9.0)
Stats Elevation 22 ft / 7 m (AMSL)
Location 34.632700° 135.223883°
Runways 1
Magnetic Variation 7.645° W

METAR

RJBE 160300Z 28011KT 9999 FEW030 BKN060 10/03 Q1016

Decode

TAF

Not found

Departure Runways

ID Width Length Bearing (true) Bearing (mag) Surface Threshold Offset Overrun Length
09 200 ft / 61 m 8,187 ft / 2,495 m 84.58° 92.23° Asphalt 0 ft / 0 m 0 ft / 0 m
27 200 ft / 61 m 8,187 ft / 2,495 m 264.60° 272.25° Asphalt 0 ft / 0 m 0 ft / 0 m

RJBD

Details ICAO RJBD (SHM)
Name NANKI SHIRAHAMA
Region Japan
Timezone Asia/Tokyo (UTC+9.0)
Stats Elevation 298 ft / 91 m (AMSL)
Location 33.663960° 135.360019°
Runways 2
Magnetic Variation 7.325° W

METAR

RJBD 160300Z 34007KT 9999 FEW025 BKN035 10/02 Q1016

Decode

TAF

Not found

Destination Runways

ID Width Length Bearing (true) Bearing (mag) Surface Threshold Offset Overrun Length
15 148 ft / 45 m 6,569 ft / 2,002 m 141.10° 148.42° Asphalt 0 ft / 0 m 213 ft / 65 m
16 98 ft / 30 m 4,325 ft / 1,318 m 157.25° 164.57° Asphalt 186 ft / 57 m 0 ft / 0 m
33 148 ft / 45 m 6,569 ft / 2,002 m 321.10° 328.42° Asphalt 0 ft / 0 m 218 ft / 66 m
34 98 ft / 30 m 4,325 ft / 1,318 m 337.25° 344.57° Asphalt 193 ft / 59 m 0 ft / 0 m